sensor_id;sensor_type;location;lat;lon;timestamp;temperature;humidity
9033;DHT22;4551;53.164;8.210;2022-10-31T00:02:24;15.00;99.90
9033;DHT22;4551;53.164;8.210;2022-10-31T00:04:52;14.90;99.90
9033;DHT22;4551;53.164;8.210;2022-10-31T00:07:22;14.90;99.90
9033;DHT22;4551;53.164;8.210;2022-10-31T00:09:50;14.80;99.90
9033;DHT22;4551;53.164;8.210;2022-10-31T00:12:18;14.80;99.90
9033;DHT22;4551;53.164;8.210;2022-10-31T00:14:46;14.80;99.90
9033;DHT22;4551;53.164;8.210;2022-10-31T00:17:14;14.80;99.90
9033;DHT22;4551;53.164;8.210;2022-10-31T00:19:41;14.70;99.90
9033;DHT22;4551;53.164;8.210;2022-10-31T00:22:09;14.70;99.90
9033;DHT22;4551;53.164;8.210;2022-10-31T00:24:39;14.70;99.90
9033;DHT22;4551;53.164;8.210;2022-10-31T00:27:07;14.70;99.90
9033;DHT22;4551;53.164;8.210;2022-10-31T00:29:35;14.70;99.90
9033;DHT22;4551;53.164;8.210;2022-10-31T00:32:03;14.60;99.90
9033;DHT22;4551;53.164;8.210;2022-10-31T00:34:31;14.60;99.90
9033;DHT22;4551;53.164;8.210;2022-10-31T00:36:59;14.60;99.90
9033;DHT22;4551;53.164;8.210;2022-10-31T00:39:27;14.60;99.90
9033;DHT22;4551;53.164;8.210;2022-10-31T00:41:56;14.50;99.90
9033;DHT22;4551;53.164;8.210;2022-10-31T00:44:24;14.50;99.90
9033;DHT22;4551;53.164;8.210;2022-10-31T00:46:52;14.40;99.90
9033;DHT22;4551;53.164;8.210;2022-10-31T00:49:20;14.40;99.90
9033;DHT22;4551;53.164;8.210;2022-10-31T00:51:48;14.40;99.90
9033;DHT22;4551;53.164;8.210;2022-10-31T00:54:16;14.40;99.90
9033;DHT22;4551;53.164;8.210;2022-10-31T00:56:44;14.40;99.90
9033;DHT22;4551;53.164;8.210;2022-10-31T00:59:13;14.40;99.90
9033;DHT22;4551;53.164;8.210;2022-10-31T01:01:41;14.40;99.90
9033;DHT22;4551;53.164;8.210;2022-10-31T01:04:09;14.30;99.90
9033;DHT22;4551;53.164;8.210;2022-10-31T01:06:37;14.30;99.90
9033;DHT22;4551;53.164;8.210;2022-10-31T01:09:05;14.30;99.90
9033;DHT22;4551;53.164;8.210;2022-10-31T01:11:33;14.20;99.90
9033;DHT22;4551;53.164;8.210;2022-10-31T01:14:01;14.20;99.90
9033;DHT22;4551;53.164;8.210;2022-10-31T01:16:32;14.10;99.90
9033;DHT22;4551;53.164;8.210;2022-10-31T01:19:00;14.10;99.90
9033;DHT22;4551;53.164;8.210;2022-10-31T01:21:28;14.00;99.90
9033;DHT22;4551;53.164;8.210;2022-10-31T01:23:56;14.00;99.90
9033;DHT22;4551;53.164;8.210;2022-10-31T01:26:25;14.00;99.90
9033;DHT22;4551;53.164;8.210;2022-10-31T01:28:54;14.00;99.90
9033;DHT22;4551;53.164;8.210;2022-10-31T01:31:23;14.00;99.90
9033;DHT22;4551;53.164;8.210;2022-10-31T01:33:53;13.90;99.90
9033;DHT22;4551;53.164;8.210;2022-10-31T01:36:21;13.90;99.90
9033;DHT22;4551;53.164;8.210;2022-10-31T01:38:50;13.80;99.90
9033;DHT22;4551;53.164;8.210;2022-10-31T01:41:19;13.80;99.90
9033;DHT22;4551;53.164;8.210;2022-10-31T01:43:51;13.70;99.90
9033;DHT22;4551;53.164;8.210;2022-10-31T01:46:20;13.70;99.90
9033;DHT22;4551;53.164;8.210;2022-10-31T01:48:49;13.60;99.90
9033;DHT22;4551;53.164;8.210;2022-10-31T01:51:19;13.60;99.90
9033;DHT22;4551;53.164;8.210;2022-10-31T01:53:48;13.60;99.90
9033;DHT22;4551;53.164;8.210;2022-10-31T01:56:17;13.60;99.90
9033;DHT22;4551;53.164;8.210;2022-10-31T01:58:45;13.60;99.90
9033;DHT22;4551;53.164;8.210;2022-10-31T02:01:14;13.60;99.90
9033;DHT22;4551;53.164;8.210;2022-10-31T02:03:42;13.60;99.90
9033;DHT22;4551;53.164;8.210;2022-10-31T02:06:13;13.60;99.90
9033;DHT22;4551;53.164;8.210;2022-10-31T02:08:46;13.50;99.90
9033;DHT22;4551;53.164;8.210;2022-10-31T02:11:14;13.60;99.90
9033;DHT22;4551;53.164;8.210;2022-10-31T02:13:42;13.50;99.90
9033;DHT22;4551;53.164;8.210;2022-10-31T02:16:10;13.50;99.90
9033;DHT22;4551;53.164;8.210;2022-10-31T02:18:38;13.60;99.90
9033;DHT22;4551;53.164;8.210;2022-10-31T02:21:07;13.50;99.90
9033;DHT22;4551;53.164;8.210;2022-10-31T02:24:05;13.50;99.90
9033;DHT22;4551;53.164;8.210;2022-10-31T02:26:41;13.50;99.90
9033;DHT22;4551;53.164;8.210;2022-10-31T02:29:25;13.50;99.90
9033;DHT22;4551;53.164;8.210;2022-10-31T02:32:00;13.50;99.90
9033;DHT22;4551;53.164;8.210;2022-10-31T02:34:31;13.50;99.90
9033;DHT22;4551;53.164;8.210;2022-10-31T02:37:04;13.50;99.90
9033;DHT22;4551;53.164;8.210;2022-10-31T02:39:34;13.50;99.90
9033;DHT22;4551;53.164;8.210;2022-10-31T02:42:07;13.40;99.90
9033;DHT22;4551;53.164;8.210;2022-10-31T02:44:37;13.40;99.90
9033;DHT22;4551;53.164;8.210;2022-10-31T02:47:08;13.40;99.90
9033;DHT22;4551;53.164;8.210;2022-10-31T02:49:38;13.40;99.90
9033;DHT22;4551;53.164;8.210;2022-10-31T02:52:14;13.40;99.90
9033;DHT22;4551;53.164;8.210;2022-10-31T02:54:44;13.40;99.90
9033;DHT22;4551;53.164;8.210;2022-10-31T02:57:13;13.40;99.90
9033;DHT22;4551;53.164;8.210;2022-10-31T02:59:43;13.30;99.90
9033;DHT22;4551;53.164;8.210;2022-10-31T03:02:17;13.40;99.90
9033;DHT22;4551;53.164;8.210;2022-10-31T03:07:36;13.30;99.90
9033;DHT22;4551;53.164;8.210;2022-10-31T03:10:10;13.20;99.90
9033;DHT22;4551;53.164;8.210;2022-10-31T03:12:42;13.20;99.90
9033;DHT22;4551;53.164;8.210;2022-10-31T03:15:25;13.30;99.90
9033;DHT22;4551;53.164;8.210;2022-10-31T03:17:56;13.20;99.90
9033;DHT22;4551;53.164;8.210;2022-10-31T03:20:30;13.20;99.90
9033;DHT22;4551;53.164;8.210;2022-10-31T03:23:01;13.20;99.90
9033;DHT22;4551;53.164;8.210;2022-10-31T03:25:30;13.20;99.90
9033;DHT22;4551;53.164;8.210;2022-10-31T03:27:59;13.10;99.90
9033;DHT22;4551;53.164;8.210;2022-10-31T03:30:30;13.10;99.90
9033;DHT22;4551;53.164;8.210;2022-10-31T03:33:04;13.00;99.90
9033;DHT22;4551;53.164;8.210;2022-10-31T03:35:32;13.00;99.90
9033;DHT22;4551;53.164;8.210;2022-10-31T03:38:01;13.00;99.90
9033;DHT22;4551;53.164;8.210;2022-10-31T03:40:33;12.90;99.90
9033;DHT22;4551;53.164;8.210;2022-10-31T03:43:06;12.90;99.90
9033;DHT22;4551;53.164;8.210;2022-10-31T03:45:36;12.90;99.90
9033;DHT22;4551;53.164;8.210;2022-10-31T03:48:07;12.80;99.90
9033;DHT22;4551;53.164;8.210;2022-10-31T03:50:39;12.80;99.90
9033;DHT22;4551;53.164;8.210;2022-10-31T03:53:09;12.70;99.90
9033;DHT22;4551;53.164;8.210;2022-10-31T03:55:39;12.70;99.90
9033;DHT22;4551;53.164;8.210;2022-10-31T03:58:08;12.70;99.90
9033;DHT22;4551;53.164;8.210;2022-10-31T04:00:37;12.70;99.90
9033;DHT22;4551;53.164;8.210;2022-10-31T04:03:09;12.60;99.90
9033;DHT22;4551;53.164;8.210;2022-10-31T04:05:38;12.60;99.90
9033;DHT22;4551;53.164;8.210;2022-10-31T04:08:07;12.60;99.90
9033;DHT22;4551;53.164;8.210;2022-10-31T04:10:36;12.50;99.90
9033;DHT22;4551;53.164;8.210;2022-10-31T04:13:06;12.50;99.90
9033;DHT22;4551;53.164;8.210;2022-10-31T04:15:35;12.50;99.90
9033;DHT22;4551;53.164;8.210;2022-10-31T04:18:04;12.40;99.90
9033;DHT22;4551;53.164;8.210;2022-10-31T04:20:34;12.40;99.90
9033;DHT22;4551;53.164;8.210;2022-10-31T04:23:03;12.40;99.90
9033;DHT22;4551;53.164;8.210;2022-10-31T04:25:32;12.40;99.90
9033;DHT22;4551;53.164;8.210;2022-10-31T04:28:00;12.40;99.90
9033;DHT22;4551;53.164;8.210;2022-10-31T04:30:29;12.40;99.90
9033;DHT22;4551;53.164;8.210;2022-10-31T04:32:57;12.40;99.90
9033;DHT22;4551;53.164;8.210;2022-10-31T04:35:25;12.30;99.90
9033;DHT22;4551;53.164;8.210;2022-10-31T04:37:54;12.30;99.90
9033;DHT22;4551;53.164;8.210;2022-10-31T04:40:22;12.20;99.90
9033;DHT22;4551;53.164;8.210;2022-10-31T04:42:50;12.20;99.90
9033;DHT22;4551;53.164;8.210;2022-10-31T04:45:18;12.10;99.90
9033;DHT22;4551;53.164;8.210;2022-10-31T04:47:47;12.10;99.90
9033;DHT22;4551;53.164;8.210;2022-10-31T04:50:15;12.10;99.90
9033;DHT22;4551;53.164;8.210;2022-10-31T04:52:43;12.10;99.90
9033;DHT22;4551;53.164;8.210;2022-10-31T04:55:13;12.10;99.90
9033;DHT22;4551;53.164;8.210;2022-10-31T04:57:41;12.00;99.90
9033;DHT22;4551;53.164;8.210;2022-10-31T05:00:10;12.00;99.90
9033;DHT22;4551;53.164;8.210;2022-10-31T05:02:42;12.00;99.90
9033;DHT22;4551;53.164;8.210;2022-10-31T05:05:10;12.00;99.90
9033;DHT22;4551;53.164;8.210;2022-10-31T05:07:39;12.00;99.90
9033;DHT22;4551;53.164;8.210;2022-10-31T05:10:07;12.00;99.90
9033;DHT22;4551;53.164;8.210;2022-10-31T05:12:37;11.90;99.90
9033;DHT22;4551;53.164;8.210;2022-10-31T05:15:06;11.90;99.90
9033;DHT22;4551;53.164;8.210;2022-10-31T05:17:34;11.90;99.90
9033;DHT22;4551;53.164;8.210;2022-10-31T05:20:02;11.90;99.90
9033;DHT22;4551;53.164;8.210;2022-10-31T05:22:30;11.80;99.90
9033;DHT22;4551;53.164;8.210;2022-10-31T05:24:58;11.80;99.90
9033;DHT22;4551;53.164;8.210;2022-10-31T05:27:26;11.80;99.90
9033;DHT22;4551;53.164;8.210;2022-10-31T05:29:55;11.80;99.90
9033;DHT22;4551;53.164;8.210;2022-10-31T05:32:23;11.80;99.90
9033;DHT22;4551;53.164;8.210;2022-10-31T05:34:51;11.70;99.90
9033;DHT22;4551;53.164;8.210;2022-10-31T05:37:19;11.70;99.90
9033;DHT22;4551;53.164;8.210;2022-10-31T05:39:47;11.60;99.90
9033;DHT22;4551;53.164;8.210;2022-10-31T05:42:15;11.60;99.90
9033;DHT22;4551;53.164;8.210;2022-10-31T05:44:43;11.60;99.90
9033;DHT22;4551;53.164;8.210;2022-10-31T05:47:12;11.50;99.90
9033;DHT22;4551;53.164;8.210;2022-10-31T05:49:49;11.50;99.90
9033;DHT22;4551;53.164;8.210;2022-10-31T05:52:18;11.50;99.90
9033;DHT22;4551;53.164;8.210;2022-10-31T05:54:46;11.50;99.90
9033;DHT22;4551;53.164;8.210;2022-10-31T05:57:14;11.40;99.90
9033;DHT22;4551;53.164;8.210;2022-10-31T05:59:41;11.40;99.90
9033;DHT22;4551;53.164;8.210;2022-10-31T06:02:09;11.40;99.90
9033;DHT22;4551;53.164;8.210;2022-10-31T06:04:39;11.40;99.90
9033;DHT22;4551;53.164;8.210;2022-10-31T06:07:07;11.40;99.90
9033;DHT22;4551;53.164;8.210;2022-10-31T06:09:35;11.40;99.90
9033;DHT22;4551;53.164;8.210;2022-10-31T06:12:03;11.40;99.90
9033;DHT22;4551;53.164;8.210;2022-10-31T06:14:31;11.30;99.90
9033;DHT22;4551;53.164;8.210;2022-10-31T06:16:58;11.30;99.90
9033;DHT22;4551;53.164;8.210;2022-10-31T06:19:26;11.30;99.90
9033;DHT22;4551;53.164;8.210;2022-10-31T06:21:56;11.30;99.90
9033;DHT22;4551;53.164;8.210;2022-10-31T06:24:24;11.20;99.90
9033;DHT22;4551;53.164;8.210;2022-10-31T06:26:52;11.20;99.90
9033;DHT22;4551;53.164;8.210;2022-10-31T06:29:20;11.20;99.90
9033;DHT22;4551;53.164;8.210;2022-10-31T06:31:50;11.10;99.90
9033;DHT22;4551;53.164;8.210;2022-10-31T06:34:18;11.10;99.90
9033;DHT22;4551;53.164;8.210;2022-10-31T06:36:46;11.10;99.90
9033;DHT22;4551;53.164;8.210;2022-10-31T06:39:16;11.10;99.90
9033;DHT22;4551;53.164;8.210;2022-10-31T06:41:44;11.10;99.90
9033;DHT22;4551;53.164;8.210;2022-10-31T06:44:14;11.10;99.90
9033;DHT22;4551;53.164;8.210;2022-10-31T06:46:42;11.10;99.90
9033;DHT22;4551;53.164;8.210;2022-10-31T06:49:10;11.10;99.90
9033;DHT22;4551;53.164;8.210;2022-10-31T06:51:38;11.10;99.90
9033;DHT22;4551;53.164;8.210;2022-10-31T06:54:06;11.10;99.90
9033;DHT22;4551;53.164;8.210;2022-10-31T06:56:36;11.10;99.90
9033;DHT22;4551;53.164;8.210;2022-10-31T06:59:04;11.10;99.90
9033;DHT22;4551;53.164;8.210;2022-10-31T07:01:32;11.10;99.90
9033;DHT22;4551;53.164;8.210;2022-10-31T07:04:00;11.10;99.90
9033;DHT22;4551;53.164;8.210;2022-10-31T07:06:28;11.20;99.90
9033;DHT22;4551;53.164;8.210;2022-10-31T07:09:22;11.20;99.90
9033;DHT22;4551;53.164;8.210;2022-10-31T07:11:52;11.20;99.90
9033;DHT22;4551;53.164;8.210;2022-10-31T07:14:21;11.20;99.90
9033;DHT22;4551;53.164;8.210;2022-10-31T07:16:49;11.20;99.90
9033;DHT22;4551;53.164;8.210;2022-10-31T07:19:17;11.20;99.90
9033;DHT22;4551;53.164;8.210;2022-10-31T07:21:45;11.20;99.90
9033;DHT22;4551;53.164;8.210;2022-10-31T07:24:13;11.20;99.90
9033;DHT22;4551;53.164;8.210;2022-10-31T07:26:41;11.20;99.90
9033;DHT22;4551;53.164;8.210;2022-10-31T07:29:11;11.20;99.90
9033;DHT22;4551;53.164;8.210;2022-10-31T07:31:39;11.20;99.90
9033;DHT22;4551;53.164;8.210;2022-10-31T07:34:07;11.20;99.90
9033;DHT22;4551;53.164;8.210;2022-10-31T07:36:35;11.30;99.90
9033;DHT22;4551;53.164;8.210;2022-10-31T07:39:03;11.30;99.90
9033;DHT22;4551;53.164;8.210;2022-10-31T07:41:31;11.30;99.90
9033;DHT22;4551;53.164;8.210;2022-10-31T07:43:59;11.30;99.90
9033;DHT22;4551;53.164;8.210;2022-10-31T07:46:28;11.30;99.90
9033;DHT22;4551;53.164;8.210;2022-10-31T07:48:56;11.40;99.90
9033;DHT22;4551;53.164;8.210;2022-10-31T07:51:24;11.40;99.90
9033;DHT22;4551;53.164;8.210;2022-10-31T07:53:53;11.40;99.90
9033;DHT22;4551;53.164;8.210;2022-10-31T07:56:20;11.50;99.90
9033;DHT22;4551;53.164;8.210;2022-10-31T07:58:48;11.50;99.90
9033;DHT22;4551;53.164;8.210;2022-10-31T08:01:16;11.50;99.90
9033;DHT22;4551;53.164;8.210;2022-10-31T08:03:46;11.50;99.90
9033;DHT22;4551;53.164;8.210;2022-10-31T08:06:14;11.40;99.90
9033;DHT22;4551;53.164;8.210;2022-10-31T08:08:41;11.50;99.90
9033;DHT22;4551;53.164;8.210;2022-10-31T08:11:09;11.50;99.90
9033;DHT22;4551;53.164;8.210;2022-10-31T08:13:43;11.60;99.90
9033;DHT22;4551;53.164;8.210;2022-10-31T08:16:11;12.20;99.90
9033;DHT22;4551;53.164;8.210;2022-10-31T08:18:42;11.60;99.90
9033;DHT22;4551;53.164;8.210;2022-10-31T08:21:12;11.60;99.90
9033;DHT22;4551;53.164;8.210;2022-10-31T08:23:40;11.60;99.90
9033;DHT22;4551;53.164;8.210;2022-10-31T08:26:08;11.60;99.90
9033;DHT22;4551;53.164;8.210;2022-10-31T08:28:36;11.60;99.90
9033;DHT22;4551;53.164;8.210;2022-10-31T08:31:04;11.60;99.90
9033;DHT22;4551;53.164;8.210;2022-10-31T08:33:32;11.70;99.90
9033;DHT22;4551;53.164;8.210;2022-10-31T08:36:00;11.70;99.90
9033;DHT22;4551;53.164;8.210;2022-10-31T08:38:29;11.80;99.90
9033;DHT22;4551;53.164;8.210;2022-10-31T08:40:57;11.80;99.90
9033;DHT22;4551;53.164;8.210;2022-10-31T08:43:25;11.80;99.90
9033;DHT22;4551;53.164;8.210;2022-10-31T08:45:53;11.90;99.90
9033;DHT22;4551;53.164;8.210;2022-10-31T08:48:22;11.80;99.90
9033;DHT22;4551;53.164;8.210;2022-10-31T08:50:50;11.90;99.90
9033;DHT22;4551;53.164;8.210;2022-10-31T08:53:18;11.90;99.90
9033;DHT22;4551;53.164;8.210;2022-10-31T08:55:47;11.90;99.90
9033;DHT22;4551;53.164;8.210;2022-10-31T08:58:16;11.90;99.90
9033;DHT22;4551;53.164;8.210;2022-10-31T09:00:44;11.90;99.90
9033;DHT22;4551;53.164;8.210;2022-10-31T09:03:13;12.00;99.90
9033;DHT22;4551;53.164;8.210;2022-10-31T09:05:41;12.00;99.90
9033;DHT22;4551;53.164;8.210;2022-10-31T09:08:11;12.00;99.90
9033;DHT22;4551;53.164;8.210;2022-10-31T09:10:43;12.00;99.90
9033;DHT22;4551;53.164;8.210;2022-10-31T09:13:13;12.10;99.90
9033;DHT22;4551;53.164;8.210;2022-10-31T09:15:43;12.10;99.90
9033;DHT22;4551;53.164;8.210;2022-10-31T09:18:11;12.20;99.90
9033;DHT22;4551;53.164;8.210;2022-10-31T09:20:40;12.20;99.90
9033;DHT22;4551;53.164;8.210;2022-10-31T09:23:09;12.30;99.90
9033;DHT22;4551;53.164;8.210;2022-10-31T09:25:38;12.30;99.90
9033;DHT22;4551;53.164;8.210;2022-10-31T09:28:06;12.30;99.90
9033;DHT22;4551;53.164;8.210;2022-10-31T09:30:37;12.40;99.90
9033;DHT22;4551;53.164;8.210;2022-10-31T09:33:06;12.40;99.90
9033;DHT22;4551;53.164;8.210;2022-10-31T09:35:35;12.50;99.90
9033;DHT22;4551;53.164;8.210;2022-10-31T09:38:03;12.50;99.90
9033;DHT22;4551;53.164;8.210;2022-10-31T09:41:01;12.50;99.90
9033;DHT22;4551;53.164;8.210;2022-10-31T09:43:32;12.60;99.90
9033;DHT22;4551;53.164;8.210;2022-10-31T09:46:04;12.70;99.90
9033;DHT22;4551;53.164;8.210;2022-10-31T09:48:40;12.70;99.90
9033;DHT22;4551;53.164;8.210;2022-10-31T09:51:12;12.80;99.90
9033;DHT22;4551;53.164;8.210;2022-10-31T09:53:42;12.80;99.90
9033;DHT22;4551;53.164;8.210;2022-10-31T09:56:11;12.90;99.90
9033;DHT22;4551;53.164;8.210;2022-10-31T09:58:41;13.00;99.90
9033;DHT22;4551;53.164;8.210;2022-10-31T10:01:16;13.00;99.90
9033;DHT22;4551;53.164;8.210;2022-10-31T10:03:46;13.10;99.90
9033;DHT22;4551;53.164;8.210;2022-10-31T10:06:15;13.10;99.90
9033;DHT22;4551;53.164;8.210;2022-10-31T10:08:44;13.10;99.90
9033;DHT22;4551;53.164;8.210;2022-10-31T10:11:25;13.20;99.90
9033;DHT22;4551;53.164;8.210;2022-10-31T10:13:57;13.30;99.90
9033;DHT22;4551;53.164;8.210;2022-10-31T10:16:47;13.30;99.90
9033;DHT22;4551;53.164;8.210;2022-10-31T10:19:19;13.30;99.90
9033;DHT22;4551;53.164;8.210;2022-10-31T10:21:53;13.40;99.90
9033;DHT22;4551;53.164;8.210;2022-10-31T10:24:27;13.40;99.90
9033;DHT22;4551;53.164;8.210;2022-10-31T10:27:00;13.50;99.90
9033;DHT22;4551;53.164;8.210;2022-10-31T10:29:31;13.50;99.90
9033;DHT22;4551;53.164;8.210;2022-10-31T10:32:04;13.60;99.90
9033;DHT22;4551;53.164;8.210;2022-10-31T10:34:36;13.70;99.90
9033;DHT22;4551;53.164;8.210;2022-10-31T10:37:08;13.70;99.90
9033;DHT22;4551;53.164;8.210;2022-10-31T10:39:43;13.80;99.90
9033;DHT22;4551;53.164;8.210;2022-10-31T10:42:12;13.90;99.90
9033;DHT22;4551;53.164;8.210;2022-10-31T10:44:58;13.90;99.90
9033;DHT22;4551;53.164;8.210;2022-10-31T10:50:31;14.10;99.90
9033;DHT22;4551;53.164;8.210;2022-10-31T10:53:01;14.20;99.90
9033;DHT22;4551;53.164;8.210;2022-10-31T10:55:35;14.30;99.90
9033;DHT22;4551;53.164;8.210;2022-10-31T10:58:06;14.30;99.90
9033;DHT22;4551;53.164;8.210;2022-10-31T11:00:34;14.30;99.90
9033;DHT22;4551;53.164;8.210;2022-10-31T11:03:03;14.40;99.90
9033;DHT22;4551;53.164;8.210;2022-10-31T11:05:36;14.40;99.90
9033;DHT22;4551;53.164;8.210;2022-10-31T11:08:04;14.50;99.90
9033;DHT22;4551;53.164;8.210;2022-10-31T11:10:33;14.60;99.90
9033;DHT22;4551;53.164;8.210;2022-10-31T11:13:06;14.70;99.90
9033;DHT22;4551;53.164;8.210;2022-10-31T11:15:36;14.70;99.90
9033;DHT22;4551;53.164;8.210;2022-10-31T11:18:04;14.90;99.90
9033;DHT22;4551;53.164;8.210;2022-10-31T11:20:33;15.00;99.90
9033;DHT22;4551;53.164;8.210;2022-10-31T11:23:16;15.10;99.90
9033;DHT22;4551;53.164;8.210;2022-10-31T11:25:48;15.10;99.90
9033;DHT22;4551;53.164;8.210;2022-10-31T11:28:17;15.30;99.90
9033;DHT22;4551;53.164;8.210;2022-10-31T11:30:46;15.40;99.90
9033;DHT22;4551;53.164;8.210;2022-10-31T11:33:16;15.40;99.90
9033;DHT22;4551;53.164;8.210;2022-10-31T11:35:45;15.50;99.90
9033;DHT22;4551;53.164;8.210;2022-10-31T11:38:21;15.60;99.90
9033;DHT22;4551;53.164;8.210;2022-10-31T11:40:57;15.70;99.90
9033;DHT22;4551;53.164;8.210;2022-10-31T11:43:25;15.70;99.90
9033;DHT22;4551;53.164;8.210;2022-10-31T11:45:54;15.80;99.90
9033;DHT22;4551;53.164;8.210;2022-10-31T11:48:22;15.90;99.90
9033;DHT22;4551;53.164;8.210;2022-10-31T11:50:51;16.00;99.90
9033;DHT22;4551;53.164;8.210;2022-10-31T11:53:22;16.00;99.90
9033;DHT22;4551;53.164;8.210;2022-10-31T11:55:59;16.10;99.90
9033;DHT22;4551;53.164;8.210;2022-10-31T11:58:28;16.20;99.90
9033;DHT22;4551;53.164;8.210;2022-10-31T12:00:56;16.30;99.90
9033;DHT22;4551;53.164;8.210;2022-10-31T12:03:40;16.40;99.90
9033;DHT22;4551;53.164;8.210;2022-10-31T12:06:11;16.50;99.90
9033;DHT22;4551;53.164;8.210;2022-10-31T12:08:41;16.70;99.90
9033;DHT22;4551;53.164;8.210;2022-10-31T12:11:11;16.90;99.90
9033;DHT22;4551;53.164;8.210;2022-10-31T12:13:44;17.00;99.90
9033;DHT22;4551;53.164;8.210;2022-10-31T12:16:16;17.20;99.90
9033;DHT22;4551;53.164;8.210;2022-10-31T12:18:55;17.20;99.90
9033;DHT22;4551;53.164;8.210;2022-10-31T12:21:34;17.30;99.90
9033;DHT22;4551;53.164;8.210;2022-10-31T12:24:09;17.30;99.90
9033;DHT22;4551;53.164;8.210;2022-10-31T12:26:46;17.30;99.90
9033;DHT22;4551;53.164;8.210;2022-10-31T12:29:24;17.20;99.90
9033;DHT22;4551;53.164;8.210;2022-10-31T12:31:57;17.20;99.90
9033;DHT22;4551;53.164;8.210;2022-10-31T12:34:32;17.20;99.90
9033;DHT22;4551;53.164;8.210;2022-10-31T12:37:03;17.20;99.90
9033;DHT22;4551;53.164;8.210;2022-10-31T12:39:38;17.30;99.90
9033;DHT22;4551;53.164;8.210;2022-10-31T12:42:10;18.30;99.90
9033;DHT22;4551;53.164;8.210;2022-10-31T12:44:45;17.70;99.90
9033;DHT22;4551;53.164;8.210;2022-10-31T12:47:27;17.90;99.90
9033;DHT22;4551;53.164;8.210;2022-10-31T12:50:01;18.10;99.90
9033;DHT22;4551;53.164;8.210;2022-10-31T12:52:37;18.30;99.90
9033;DHT22;4551;53.164;8.210;2022-10-31T12:55:13;18.50;99.90
9033;DHT22;4551;53.164;8.210;2022-10-31T12:57:45;18.70;99.90
9033;DHT22;4551;53.164;8.210;2022-10-31T13:00:15;18.80;99.90
9033;DHT22;4551;53.164;8.210;2022-10-31T13:02:54;18.90;99.90
9033;DHT22;4551;53.164;8.210;2022-10-31T13:05:25;19.00;99.90
9033;DHT22;4551;53.164;8.210;2022-10-31T13:07:56;18.90;99.90
9033;DHT22;4551;53.164;8.210;2022-10-31T13:10:31;18.90;99.90
9033;DHT22;4551;53.164;8.210;2022-10-31T13:13:00;18.90;99.90
9033;DHT22;4551;53.164;8.210;2022-10-31T13:15:30;19.10;99.90
9033;DHT22;4551;53.164;8.210;2022-10-31T13:18:01;19.10;99.90
9033;DHT22;4551;53.164;8.210;2022-10-31T13:20:32;19.10;99.90
9033;DHT22;4551;53.164;8.210;2022-10-31T13:23:03;19.10;99.90
9033;DHT22;4551;53.164;8.210;2022-10-31T13:25:53;18.90;99.90
9033;DHT22;4551;53.164;8.210;2022-10-31T13:28:24;18.80;99.90
9033;DHT22;4551;53.164;8.210;2022-10-31T13:30:55;18.90;99.90
9033;DHT22;4551;53.164;8.210;2022-10-31T13:33:24;18.90;99.90
9033;DHT22;4551;53.164;8.210;2022-10-31T13:36:00;18.90;99.90
9033;DHT22;4551;53.164;8.210;2022-10-31T13:38:33;18.90;99.90
9033;DHT22;4551;53.164;8.210;2022-10-31T13:41:06;18.90;99.90
9033;DHT22;4551;53.164;8.210;2022-10-31T13:43:42;19.00;99.90
9033;DHT22;4551;53.164;8.210;2022-10-31T13:46:22;18.90;99.90
9033;DHT22;4551;53.164;8.210;2022-10-31T13:48:51;18.90;99.90
9033;DHT22;4551;53.164;8.210;2022-10-31T13:51:24;18.90;99.90
9033;DHT22;4551;53.164;8.210;2022-10-31T13:53:59;18.90;99.90
9033;DHT22;4551;53.164;8.210;2022-10-31T13:56:29;18.80;99.90
9033;DHT22;4551;53.164;8.210;2022-10-31T13:59:02;18.70;99.90
9033;DHT22;4551;53.164;8.210;2022-10-31T14:01:31;18.60;99.90
9033;DHT22;4551;53.164;8.210;2022-10-31T14:04:01;18.60;99.90
9033;DHT22;4551;53.164;8.210;2022-10-31T14:06:41;18.50;99.90
9033;DHT22;4551;53.164;8.210;2022-10-31T14:09:20;18.40;99.90
9033;DHT22;4551;53.164;8.210;2022-10-31T14:11:50;18.40;99.90
9033;DHT22;4551;53.164;8.210;2022-10-31T14:14:18;18.40;99.90
9033;DHT22;4551;53.164;8.210;2022-10-31T14:16:52;18.30;99.90
9033;DHT22;4551;53.164;8.210;2022-10-31T14:19:21;18.30;99.90
9033;DHT22;4551;53.164;8.210;2022-10-31T14:21:50;18.20;99.90
9033;DHT22;4551;53.164;8.210;2022-10-31T14:24:31;18.20;99.90
9033;DHT22;4551;53.164;8.210;2022-10-31T14:27:02;18.10;99.90
9033;DHT22;4551;53.164;8.210;2022-10-31T14:29:30;18.10;99.90
9033;DHT22;4551;53.164;8.210;2022-10-31T14:32:01;18.00;99.90
9033;DHT22;4551;53.164;8.210;2022-10-31T14:34:34;18.00;99.90
9033;DHT22;4551;53.164;8.210;2022-10-31T14:40:07;17.80;99.90
9033;DHT22;4551;53.164;8.210;2022-10-31T14:42:44;17.80;99.90
9033;DHT22;4551;53.164;8.210;2022-10-31T14:45:16;17.70;99.90
9033;DHT22;4551;53.164;8.210;2022-10-31T14:47:47;17.60;99.90
9033;DHT22;4551;53.164;8.210;2022-10-31T14:50:24;17.60;99.90
9033;DHT22;4551;53.164;8.210;2022-10-31T14:52:57;17.50;99.90
9033;DHT22;4551;53.164;8.210;2022-10-31T14:55:28;17.40;99.90
9033;DHT22;4551;53.164;8.210;2022-10-31T14:57:59;17.30;99.90
9033;DHT22;4551;53.164;8.210;2022-10-31T15:00:28;17.30;99.90
9033;DHT22;4551;53.164;8.210;2022-10-31T15:03:05;17.20;99.90
9033;DHT22;4551;53.164;8.210;2022-10-31T15:05:34;17.10;99.90
9033;DHT22;4551;53.164;8.210;2022-10-31T15:08:03;17.00;99.90
9033;DHT22;4551;53.164;8.210;2022-10-31T15:10:31;16.90;99.90
9033;DHT22;4551;53.164;8.210;2022-10-31T15:13:10;16.80;99.90
9033;DHT22;4551;53.164;8.210;2022-10-31T15:15:40;16.70;99.90
9033;DHT22;4551;53.164;8.210;2022-10-31T15:18:17;16.60;99.90
9033;DHT22;4551;53.164;8.210;2022-10-31T15:20:45;16.50;99.90
9033;DHT22;4551;53.164;8.210;2022-10-31T15:23:20;16.50;99.90
9033;DHT22;4551;53.164;8.210;2022-10-31T15:25:48;16.40;99.90
9033;DHT22;4551;53.164;8.210;2022-10-31T15:28:23;16.40;99.90
9033;DHT22;4551;53.164;8.210;2022-10-31T15:30:51;16.30;99.90
9033;DHT22;4551;53.164;8.210;2022-10-31T15:33:21;16.30;99.90
9033;DHT22;4551;53.164;8.210;2022-10-31T15:35:56;16.20;99.90
9033;DHT22;4551;53.164;8.210;2022-10-31T15:38:25;16.20;99.90
9033;DHT22;4551;53.164;8.210;2022-10-31T15:40:54;16.10;99.90
9033;DHT22;4551;53.164;8.210;2022-10-31T15:43:24;16.00;99.90
9033;DHT22;4551;53.164;8.210;2022-10-31T15:45:52;16.10;99.90
9033;DHT22;4551;53.164;8.210;2022-10-31T15:48:21;16.00;99.90
9033;DHT22;4551;53.164;8.210;2022-10-31T15:50:50;15.90;99.90
9033;DHT22;4551;53.164;8.210;2022-10-31T15:53:19;15.80;99.90
9033;DHT22;4551;53.164;8.210;2022-10-31T15:55:48;15.80;99.90
9033;DHT22;4551;53.164;8.210;2022-10-31T15:58:17;15.80;99.90
9033;DHT22;4551;53.164;8.210;2022-10-31T16:00:57;15.70;99.90
9033;DHT22;4551;53.164;8.210;2022-10-31T16:03:27;15.60;99.90
9033;DHT22;4551;53.164;8.210;2022-10-31T16:05:55;15.60;99.90
9033;DHT22;4551;53.164;8.210;2022-10-31T16:08:25;15.50;99.90
9033;DHT22;4551;53.164;8.210;2022-10-31T16:10:53;15.50;99.90
9033;DHT22;4551;53.164;8.210;2022-10-31T16:13:23;15.40;99.90
9033;DHT22;4551;53.164;8.210;2022-10-31T16:15:53;15.40;99.90
9033;DHT22;4551;53.164;8.210;2022-10-31T16:18:43;15.30;99.90
9033;DHT22;4551;53.164;8.210;2022-10-31T16:21:11;15.30;99.90
9033;DHT22;4551;53.164;8.210;2022-10-31T16:23:45;15.20;99.90
9033;DHT22;4551;53.164;8.210;2022-10-31T16:26:13;15.20;99.90
9033;DHT22;4551;53.164;8.210;2022-10-31T16:28:50;15.20;99.90
9033;DHT22;4551;53.164;8.210;2022-10-31T16:31:24;15.10;99.90
9033;DHT22;4551;53.164;8.210;2022-10-31T16:34:02;15.10;99.90